createdAt,value
2017-10-07T00:00:43.882Z,94445.84
2017-10-07T00:03:11.614Z,94440.98
2017-10-07T00:05:39.298Z,94441.08
2017-10-07T00:08:07.036Z,94447.95
2017-10-07T00:10:34.718Z,94442.09
2017-10-07T00:13:02.575Z,94448.23
2017-10-07T00:15:30.369Z,94445.87
2017-10-07T00:17:58.035Z,94455.40
2017-10-07T00:20:25.753Z,94453.43
2017-10-07T00:22:53.569Z,94443.44
2017-10-07T00:25:21.269Z,94443.34
2017-10-07T00:27:48.961Z,94437.59
2017-10-07T00:30:16.695Z,94431.15
2017-10-07T00:32:44.440Z,94437.81
2017-10-07T00:35:12.265Z,94444.30
2017-10-07T00:37:39.999Z,94449.19
2017-10-07T00:40:07.769Z,94448.88
2017-10-07T00:42:35.473Z,94446.75
2017-10-07T00:45:03.194Z,94451.61
2017-10-07T00:47:30.880Z,94451.68
2017-10-07T00:49:58.930Z,94455.53
2017-10-07T00:52:26.696Z,94454.73
2017-10-07T00:54:54.377Z,94434.63
2017-10-07T00:57:22.168Z,94443.45
2017-10-07T00:59:49.980Z,94443.39
2017-10-07T01:02:17.749Z,94444.47
2017-10-07T01:04:45.522Z,94432.84
2017-10-07T01:07:13.211Z,94442.17
2017-10-07T01:09:40.962Z,94443.27
2017-10-07T01:12:08.713Z,94424.78
2017-10-07T01:14:36.422Z,94423.08
2017-10-07T01:17:04.154Z,94428.03
2017-10-07T01:19:31.912Z,94426.83
2017-10-07T01:22:01.035Z,94427.39
2017-10-07T01:24:28.762Z,94431.29
2017-10-07T01:26:56.527Z,94430.89
2017-10-07T01:29:24.235Z,94433.27
2017-10-07T01:31:52.037Z,94433.88
2017-10-07T01:34:19.799Z,94427.23
2017-10-07T01:36:47.535Z,94429.24
2017-10-07T01:39:15.390Z,94441.80
2017-10-07T01:41:43.101Z,94439.84
2017-10-07T01:44:10.849Z,94436.31
2017-10-07T01:46:38.594Z,94444.47
2017-10-07T01:49:06.282Z,94435.92
2017-10-07T01:51:34.052Z,94446.06
2017-10-07T01:54:02.390Z,94451.53
2017-10-07T01:56:30.232Z,94452.09
2017-10-07T01:58:57.907Z,94452.14
2017-10-07T02:01:25.565Z,94441.58
2017-10-07T02:03:53.293Z,94432.48
2017-10-07T02:06:20.994Z,94433.55
2017-10-07T02:08:48.760Z,94442.22
2017-10-07T02:11:16.436Z,94439.92
2017-10-07T02:13:44.112Z,94447.75
2017-10-07T02:16:11.848Z,94456.82
2017-10-07T02:18:39.545Z,94449.47
2017-10-07T02:21:07.315Z,94452.12
2017-10-07T02:23:35.106Z,94447.59
2017-10-07T02:26:02.858Z,94447.66
2017-10-07T02:28:30.576Z,94454.33
2017-10-07T02:30:58.281Z,94456.78
2017-10-07T02:33:25.960Z,94459.28
2017-10-07T02:35:53.739Z,94457.31
2017-10-07T02:38:21.509Z,94462.05
2017-10-07T02:40:49.200Z,94472.92
2017-10-07T02:43:16.938Z,94457.89
2017-10-07T02:45:44.679Z,94457.27
2017-10-07T02:48:12.398Z,94454.20
2017-10-07T02:50:40.636Z,94454.48
2017-10-07T02:53:08.387Z,94458.91
2017-10-07T02:55:36.376Z,94453.84
2017-10-07T02:58:04.274Z,94458.47
2017-10-07T03:00:32.117Z,94454.14
2017-10-07T03:02:59.972Z,94459.89
2017-10-07T03:05:27.655Z,94456.76
2017-10-07T03:07:55.404Z,94455.87
2017-10-07T03:10:23.177Z,94455.34
2017-10-07T03:12:50.892Z,94464.20
2017-10-07T03:15:18.634Z,94471.05
2017-10-07T03:17:46.762Z,94460.51
2017-10-07T03:20:14.511Z,94470.09
2017-10-07T03:22:42.231Z,94472.19
2017-10-07T03:25:09.975Z,94467.88
2017-10-07T03:27:37.652Z,94475.56
2017-10-07T03:30:05.415Z,94472.80
2017-10-07T03:32:33.081Z,94475.78
2017-10-07T03:35:00.820Z,94478.23
2017-10-07T03:37:28.551Z,94464.01
2017-10-07T03:39:56.290Z,94463.37
2017-10-07T03:42:24.086Z,94468.89
2017-10-07T03:44:51.864Z,94475.04
2017-10-07T03:47:19.605Z,94473.98
2017-10-07T03:49:47.295Z,94463.51
2017-10-07T03:52:15.796Z,94473.73
2017-10-07T03:54:43.522Z,94475.42
2017-10-07T03:57:11.231Z,94474.05
2017-10-07T03:59:39.011Z,94476.14
2017-10-07T04:02:06.711Z,94476.03
2017-10-07T04:04:34.394Z,94483.04
2017-10-07T04:07:02.134Z,94472.91
2017-10-07T04:09:29.847Z,94479.05
2017-10-07T04:11:57.554Z,94487.44
2017-10-07T04:14:25.260Z,94490.04
2017-10-07T04:16:52.975Z,94496.62
2017-10-07T04:19:20.718Z,94488.23
2017-10-07T04:21:48.424Z,94489.49
2017-10-07T04:24:16.151Z,94488.64
2017-10-07T04:26:43.809Z,94482.89
2017-10-07T04:29:11.540Z,94484.57
2017-10-07T04:31:39.253Z,94481.92
2017-10-07T04:34:06.955Z,94478.86
2017-10-07T04:36:35.764Z,94484.29
2017-10-07T04:39:03.615Z,94490.42
2017-10-07T04:41:31.397Z,94487.13
2017-10-07T04:43:59.340Z,94485.35
2017-10-07T04:46:27.223Z,94480.92
2017-10-07T04:48:55.015Z,94493.14
2017-10-07T04:51:22.757Z,94493.98
2017-10-07T04:53:50.479Z,94494.66
2017-10-07T04:56:18.184Z,94503.59
2017-10-07T04:58:45.949Z,94510.28
2017-10-07T05:01:14.918Z,94507.94
2017-10-07T05:03:42.702Z,94514.83
2017-10-07T05:06:10.460Z,94515.13
2017-10-07T05:08:38.224Z,94519.08
2017-10-07T05:11:05.954Z,94519.13
2017-10-07T05:13:33.736Z,94533.85
2017-10-07T05:16:01.484Z,94534.23
2017-10-07T05:18:29.279Z,94536.75
2017-10-07T05:20:57.009Z,94548.41
2017-10-07T05:23:24.932Z,94549.66
2017-10-07T05:25:52.756Z,94545.77
2017-10-07T05:28:20.760Z,94541.23
2017-10-07T05:30:48.461Z,94544.30
2017-10-07T05:33:16.210Z,94557.77
2017-10-07T05:35:43.961Z,94555.23
2017-10-07T05:38:11.674Z,94556.86
2017-10-07T05:40:39.592Z,94561.14
2017-10-07T05:43:07.305Z,94567.50
2017-10-07T05:45:35.781Z,94567.64
2017-10-07T05:48:03.586Z,94571.79
2017-10-07T05:50:31.287Z,94577.68
2017-10-07T05:52:58.980Z,94569.53
2017-10-07T05:55:26.885Z,94577.31
2017-10-07T05:57:54.589Z,94584.17
2017-10-07T06:00:22.298Z,94574.98
2017-10-07T06:02:50.060Z,94587.76
2017-10-07T06:05:17.736Z,94598.67
2017-10-07T06:07:45.443Z,94592.59
2017-10-07T06:10:13.706Z,94590.94
2017-10-07T06:12:41.475Z,94598.06
2017-10-07T06:15:09.204Z,94604.99
2017-10-07T06:17:36.948Z,94597.83
2017-10-07T06:20:04.747Z,94600.59
2017-10-07T06:22:32.544Z,94601.49
2017-10-07T06:25:00.288Z,94605.00
2017-10-07T06:27:28.134Z,94611.49
2017-10-07T06:29:55.803Z,94609.98
2017-10-07T06:32:23.556Z,94610.69
2017-10-07T06:34:51.324Z,94609.83
2017-10-07T06:37:19.075Z,94611.05
2017-10-07T06:39:46.833Z,94611.80
2017-10-07T06:42:15.832Z,94603.98
2017-10-07T06:44:43.687Z,94605.48
2017-10-07T06:47:11.893Z,94608.53
2017-10-07T06:49:39.860Z,94611.13
2017-10-07T06:52:07.653Z,94610.45
2017-10-07T06:54:35.416Z,94609.71
2017-10-07T06:57:03.195Z,94618.39
2017-10-07T06:59:30.944Z,94621.81
2017-10-07T07:01:59.227Z,94623.03
2017-10-07T07:04:27.044Z,94625.63
2017-10-07T07:06:55.017Z,94624.23
2017-10-07T07:09:22.775Z,94625.95
2017-10-07T07:11:51.220Z,94632.05
2017-10-07T07:14:19.624Z,94629.74
2017-10-07T07:16:47.548Z,94631.25
2017-10-07T07:19:15.388Z,94630.22
2017-10-07T07:21:43.223Z,94632.91
2017-10-07T07:24:12.391Z,94633.34
2017-10-07T07:26:40.233Z,94638.11
2017-10-07T07:29:07.985Z,94640.30
2017-10-07T07:31:35.667Z,94639.98
2017-10-07T07:34:03.528Z,94641.92
2017-10-07T07:36:31.293Z,94635.55
2017-10-07T07:38:59.047Z,94644.77
2017-10-07T07:41:26.758Z,94646.86
2017-10-07T07:43:54.496Z,94649.63
2017-10-07T07:46:22.244Z,94646.70
2017-10-07T07:48:50.143Z,94641.44
2017-10-07T07:51:17.954Z,94639.38
2017-10-07T07:53:45.778Z,94651.89
2017-10-07T07:56:13.554Z,94652.56
2017-10-07T07:58:41.777Z,94647.25
2017-10-07T08:01:09.619Z,94651.36
2017-10-07T08:03:37.546Z,94649.30
2017-10-07T08:06:05.335Z,94659.83
2017-10-07T08:08:33.230Z,94655.23
2017-10-07T08:11:00.921Z,94657.66
2017-10-07T08:13:28.635Z,94657.34
2017-10-07T08:15:56.464Z,94657.28
2017-10-07T08:18:24.246Z,94656.63
2017-10-07T08:20:51.973Z,94660.32
2017-10-07T08:23:19.736Z,94666.46
2017-10-07T08:25:47.533Z,94666.30
2017-10-07T08:28:15.271Z,94654.73
2017-10-07T08:30:43.161Z,94656.55
2017-10-07T08:33:13.704Z,94657.87
2017-10-07T08:35:41.500Z,94657.49
2017-10-07T08:38:09.372Z,94664.52
2017-10-07T08:40:38.064Z,94657.63
2017-10-07T08:43:06.027Z,94661.77
2017-10-07T08:45:33.746Z,94660.55
2017-10-07T08:48:01.559Z,94669.53
2017-10-07T08:50:29.308Z,94666.08
2017-10-07T08:52:57.207Z,94670.07
2017-10-07T08:55:24.968Z,94670.92
2017-10-07T08:57:52.647Z,94666.13
2017-10-07T09:00:20.643Z,94667.84
2017-10-07T09:02:48.470Z,94666.89
2017-10-07T09:05:16.258Z,94662.61
2017-10-07T09:07:44.963Z,94664.06
2017-10-07T09:10:12.761Z,94675.46
2017-10-07T09:12:40.536Z,94670.34
2017-10-07T09:15:08.899Z,94677.59
2017-10-07T09:17:36.686Z,94675.14
2017-10-07T09:20:04.435Z,94672.13
2017-10-07T09:22:32.154Z,94670.86
2017-10-07T09:25:00.111Z,94669.53
2017-10-07T09:27:27.880Z,94672.79
2017-10-07T09:29:55.591Z,94666.86
2017-10-07T09:32:23.424Z,94664.55
2017-10-07T09:34:51.230Z,94678.17
2017-10-07T09:37:19.178Z,94677.47
2017-10-07T09:39:46.868Z,94670.83
2017-10-07T09:42:14.639Z,94680.23
2017-10-07T09:44:42.445Z,94682.25
2017-10-07T09:47:10.148Z,94685.26
2017-10-07T09:49:37.852Z,94685.70
2017-10-07T09:52:05.611Z,94682.71
2017-10-07T09:54:34.049Z,94686.81
2017-10-07T09:57:01.768Z,94684.41
2017-10-07T09:59:29.487Z,94685.14
2017-10-07T10:01:57.217Z,94680.10
2017-10-07T10:04:25.053Z,94683.67
2017-10-07T10:06:53.659Z,94679.59
2017-10-07T10:09:21.561Z,94686.84
2017-10-07T10:11:49.268Z,94680.66
2017-10-07T10:14:17.043Z,94678.87
2017-10-07T10:16:44.737Z,94680.61
2017-10-07T10:19:12.480Z,94674.59
2017-10-07T10:21:41.316Z,94680.41
2017-10-07T10:24:09.006Z,94676.72
2017-10-07T10:26:36.748Z,94668.47
2017-10-07T10:29:04.435Z,94668.73
2017-10-07T10:31:32.163Z,94668.00
2017-10-07T10:33:59.886Z,94668.36
2017-10-07T10:36:27.635Z,94672.05
2017-10-07T10:38:55.391Z,94675.92
2017-10-07T10:41:23.096Z,94672.60
2017-10-07T10:43:50.803Z,94670.77
2017-10-07T10:46:18.591Z,94680.19
2017-10-07T10:48:46.412Z,94673.16
2017-10-07T10:51:14.288Z,94679.16
2017-10-07T10:53:41.965Z,94685.28
2017-10-07T10:56:09.734Z,94678.77
2017-10-07T10:58:37.849Z,94675.00
2017-10-07T11:01:06.496Z,94672.08
2017-10-07T11:03:34.243Z,94668.89
2017-10-07T11:06:02.025Z,94668.14
2017-10-07T11:08:29.803Z,94666.31
2017-10-07T11:10:57.584Z,94660.34
2017-10-07T11:13:26.525Z,94659.38
2017-10-07T11:15:54.400Z,94655.61
2017-10-07T11:18:22.839Z,94654.77
2017-10-07T11:20:50.556Z,94654.69
2017-10-07T11:23:18.549Z,94652.69
2017-10-07T11:25:46.320Z,94648.82
2017-10-07T11:28:14.125Z,94647.48
2017-10-07T11:30:42.805Z,94650.40
2017-10-07T11:33:10.540Z,94635.22
2017-10-07T11:35:38.319Z,94631.61
2017-10-07T11:38:06.157Z,94632.14
2017-10-07T11:40:33.892Z,94630.73
2017-10-07T11:43:01.704Z,94619.37
2017-10-07T11:45:29.611Z,94628.58
2017-10-07T11:47:57.338Z,94632.11
2017-10-07T11:50:25.106Z,94624.18
2017-10-07T11:52:52.917Z,94643.13
2017-10-07T11:55:21.542Z,94643.50
2017-10-07T11:57:49.529Z,94632.33
2017-10-07T12:00:17.232Z,94622.88
2017-10-07T12:02:44.965Z,94620.97
2017-10-07T12:05:12.715Z,94616.50
2017-10-07T12:07:41.249Z,94612.95
2017-10-07T12:10:09.265Z,94612.63
2017-10-07T12:12:37.126Z,94601.83
2017-10-07T12:15:04.920Z,94595.73
2017-10-07T12:17:33.654Z,94604.93
2017-10-07T12:20:01.441Z,94593.83
2017-10-07T12:22:29.227Z,94591.63
2017-10-07T12:24:56.903Z,94603.22
2017-10-07T12:27:24.643Z,94589.48
2017-10-07T12:29:52.395Z,94594.77
2017-10-07T12:32:20.913Z,94581.63
2017-10-07T12:34:49.172Z,94577.64
2017-10-07T12:37:16.930Z,94580.20
2017-10-07T12:39:44.673Z,94579.28
2017-10-07T12:42:12.540Z,94592.83
2017-10-07T12:44:40.265Z,94577.78
2017-10-07T12:47:08.039Z,94580.02
2017-10-07T12:49:35.818Z,94571.98
2017-10-07T12:52:03.597Z,94572.04
2017-10-07T12:54:31.317Z,94573.98
2017-10-07T12:56:58.998Z,94564.58
2017-10-07T12:59:26.767Z,94575.69
2017-10-07T13:01:56.105Z,94570.91
2017-10-07T13:04:25.800Z,94576.52
2017-10-07T13:06:53.719Z,94575.00
2017-10-07T13:09:21.514Z,94572.91
2017-10-07T13:11:49.180Z,94563.20
2017-10-07T13:14:18.924Z,94564.69
2017-10-07T13:16:47.584Z,94560.23
2017-10-07T13:19:15.344Z,94557.90
2017-10-07T13:21:43.208Z,94564.89
2017-10-07T13:24:10.920Z,94559.36
2017-10-07T13:26:38.622Z,94555.27
2017-10-07T13:29:06.407Z,94549.16
2017-10-07T13:31:34.100Z,94543.59
2017-10-07T13:34:01.909Z,94539.06
2017-10-07T13:36:29.676Z,94534.64
2017-10-07T13:38:58.227Z,94530.63
2017-10-07T13:41:25.951Z,94532.94
2017-10-07T13:43:53.624Z,94525.13
2017-10-07T13:46:21.377Z,94530.02
2017-10-07T13:48:49.109Z,94523.64
2017-10-07T13:51:17.016Z,94527.87
2017-10-07T13:53:44.681Z,94516.30
2017-10-07T13:56:12.419Z,94516.08
2017-10-07T13:58:40.124Z,94505.48
2017-10-07T14:01:08.675Z,94524.44
2017-10-07T14:03:37.121Z,94521.77
2017-10-07T14:06:04.880Z,94520.92
2017-10-07T14:08:32.640Z,94518.28
2017-10-07T14:11:00.406Z,94510.01
2017-10-07T14:13:28.144Z,94512.35
2017-10-07T14:15:55.915Z,94506.95
2017-10-07T14:18:23.750Z,94507.50
2017-10-07T14:20:51.470Z,94511.54
2017-10-07T14:23:19.255Z,94512.75
2017-10-07T14:25:46.960Z,94509.20
2017-10-07T14:28:14.734Z,94501.63
2017-10-07T14:30:42.537Z,94497.09
2017-10-07T14:33:10.217Z,94499.47
2017-10-07T14:35:40.499Z,94498.09
2017-10-07T14:38:08.644Z,94492.78
2017-10-07T14:40:36.381Z,94489.09
2017-10-07T14:43:04.135Z,94482.18
2017-10-07T14:45:31.946Z,94481.23
2017-10-07T14:47:59.723Z,94479.17
2017-10-07T14:50:27.447Z,94476.59
2017-10-07T14:52:55.197Z,94466.41
2017-10-07T14:55:22.951Z,94465.02
2017-10-07T14:57:50.750Z,94463.41
2017-10-07T15:00:18.534Z,94458.24
2017-10-07T15:02:46.247Z,94456.30
2017-10-07T15:05:13.992Z,94457.90
2017-10-07T15:07:41.740Z,94454.90
2017-10-07T15:10:09.483Z,94445.86
2017-10-07T15:12:37.307Z,94449.30
2017-10-07T15:15:05.874Z,94448.88
2017-10-07T15:17:33.632Z,94452.67
2017-10-07T15:20:01.380Z,94450.12
2017-10-07T15:22:29.055Z,94454.08
2017-10-07T15:24:58.710Z,94451.59
2017-10-07T15:27:26.484Z,94448.39
2017-10-07T15:29:54.192Z,94446.40
2017-10-07T15:32:22.828Z,94449.75
2017-10-07T15:34:50.516Z,94440.69
2017-10-07T15:37:18.213Z,94427.23
2017-10-07T15:39:45.993Z,94425.16
2017-10-07T15:42:14.071Z,94417.64
2017-10-07T15:44:41.803Z,94418.33
2017-10-07T15:47:09.596Z,94410.47
2017-10-07T15:49:37.316Z,94401.70
2017-10-07T15:52:05.083Z,94397.41
2017-10-07T15:54:32.845Z,94397.02
2017-10-07T15:57:00.558Z,94397.38
2017-10-07T15:59:28.287Z,94382.94
2017-10-07T16:01:56.234Z,94388.34
2017-10-07T16:04:24.001Z,94385.86
2017-10-07T16:06:52.711Z,94382.53
2017-10-07T16:09:21.137Z,94383.30
2017-10-07T16:11:48.846Z,94382.95
2017-10-07T16:14:16.561Z,94380.25
2017-10-07T16:16:44.306Z,94378.22
2017-10-07T16:19:12.059Z,94384.27
2017-10-07T16:21:40.982Z,94385.63
2017-10-07T16:24:08.703Z,94386.91
2017-10-07T16:26:36.407Z,94388.92
2017-10-07T16:29:04.277Z,94386.14
2017-10-07T16:31:32.064Z,94390.17
2017-10-07T16:33:59.898Z,94392.20
2017-10-07T16:36:27.704Z,94393.06
2017-10-07T16:38:55.470Z,94396.48
2017-10-07T16:41:23.282Z,94394.59
2017-10-07T16:43:51.199Z,94398.50
2017-10-07T16:46:19.653Z,94404.78
2017-10-07T16:48:47.462Z,94400.05
2017-10-07T16:51:15.241Z,94392.69
2017-10-07T16:53:42.990Z,94395.37
2017-10-07T16:56:10.754Z,94394.58
2017-10-07T16:58:38.502Z,94400.65
2017-10-07T17:01:06.275Z,94398.26
2017-10-07T17:03:34.012Z,94398.34
2017-10-07T17:06:01.698Z,94401.38
2017-10-07T17:08:29.496Z,94397.41
2017-10-07T17:10:57.216Z,94396.81
2017-10-07T17:13:24.978Z,94408.09
2017-10-07T17:15:52.775Z,94405.01
2017-10-07T17:18:20.496Z,94410.05
2017-10-07T17:20:48.297Z,94412.93
2017-10-07T17:23:16.112Z,94407.94
2017-10-07T17:25:43.879Z,94413.39
2017-10-07T17:28:12.723Z,94401.94
2017-10-07T17:30:40.495Z,94405.71
2017-10-07T17:33:09.291Z,94405.41
2017-10-07T17:35:37.215Z,94407.56
2017-10-07T17:38:06.065Z,94411.95
2017-10-07T17:40:33.775Z,94405.39
2017-10-07T17:43:02.352Z,94411.50
2017-10-07T17:45:30.148Z,94418.73
2017-10-07T17:47:58.145Z,94402.96
2017-10-07T17:50:25.842Z,94406.38
2017-10-07T17:52:53.563Z,94404.87
2017-10-07T17:55:21.470Z,94406.85
2017-10-07T17:57:49.279Z,94404.97
2017-10-07T18:00:17.084Z,94414.03
2017-10-07T18:02:44.821Z,94406.31
2017-10-07T18:05:12.559Z,94410.61
2017-10-07T18:07:40.409Z,94413.80
2017-10-07T18:10:09.183Z,94402.36
2017-10-07T18:12:36.930Z,94407.72
2017-10-07T18:15:04.653Z,94396.08
2017-10-07T18:17:32.451Z,94395.78
2017-10-07T18:20:00.485Z,94388.50
2017-10-07T18:22:28.546Z,94382.17
2017-10-07T18:24:56.491Z,94379.20
2017-10-07T18:27:25.163Z,94378.59
2017-10-07T18:29:53.117Z,94381.89
2017-10-07T18:32:21.070Z,94383.36
2017-10-07T18:34:50.359Z,94380.90
2017-10-07T18:37:18.214Z,94388.64
2017-10-07T18:39:46.356Z,94379.59
2017-10-07T18:42:14.146Z,94372.20
2017-10-07T18:44:42.184Z,94369.94
2017-10-07T18:47:10.078Z,94374.64
2017-10-07T18:49:39.263Z,94377.06
2017-10-07T18:52:08.232Z,94364.00
2017-10-07T18:54:37.620Z,94372.83
2017-10-07T18:57:05.703Z,94368.43
2017-10-07T18:59:33.968Z,94373.59
2017-10-07T19:02:02.021Z,94360.66
2017-10-07T19:04:30.112Z,94368.05
2017-10-07T19:06:59.140Z,94366.98
2017-10-07T19:09:27.245Z,94357.03
2017-10-07T19:11:56.335Z,94359.13
2017-10-07T19:14:25.183Z,94356.00
2017-10-07T19:16:53.168Z,94355.13
2017-10-07T19:19:23.450Z,94347.27
2017-10-07T19:21:52.586Z,94342.12
2017-10-07T19:24:20.443Z,94335.11
2017-10-07T19:26:48.842Z,94334.62
2017-10-07T19:29:17.843Z,94335.04
2017-10-07T19:31:46.405Z,94330.69
2017-10-07T19:34:14.490Z,94321.86
2017-10-07T19:36:44.232Z,94327.91
2017-10-07T19:39:14.038Z,94327.39
2017-10-07T19:41:42.955Z,94323.34
2017-10-07T19:44:14.593Z,94322.37
2017-10-07T19:46:42.737Z,94323.00
2017-10-07T19:49:10.836Z,94318.92
2017-10-07T19:51:38.577Z,94324.09
2017-10-07T19:54:06.322Z,94322.20
2017-10-07T19:56:34.398Z,94324.45
2017-10-07T19:59:02.354Z,94329.99
2017-10-07T20:01:30.128Z,94323.59
2017-10-07T20:03:58.229Z,94321.20
2017-10-07T20:06:26.066Z,94326.23
2017-10-07T20:08:54.075Z,94328.23
2017-10-07T20:11:22.743Z,94312.48
2017-10-07T20:13:50.508Z,94313.31
2017-10-07T20:16:18.909Z,94307.78
2017-10-07T20:18:46.708Z,94312.64
2017-10-07T20:21:14.494Z,94303.66
2017-10-07T20:23:42.312Z,94307.31
2017-10-07T20:26:10.682Z,94304.33
2017-10-07T20:28:38.411Z,94305.78
2017-10-07T20:31:06.143Z,94299.73
2017-10-07T20:33:33.898Z,94299.27
2017-10-07T20:36:01.876Z,94298.86
2017-10-07T20:38:30.581Z,94293.72
2017-10-07T20:40:59.653Z,94292.44
2017-10-07T20:43:27.770Z,94295.42
2017-10-07T20:45:55.591Z,94292.42
2017-10-07T20:48:23.317Z,94288.95
2017-10-07T20:50:51.788Z,94282.45
2017-10-07T20:53:19.582Z,94280.78
2017-10-07T20:55:47.316Z,94277.63
2017-10-07T20:58:15.066Z,94274.33
2017-10-07T21:00:43.926Z,94270.95
2017-10-07T21:03:11.614Z,94267.36
2017-10-07T21:05:39.348Z,94260.62
2017-10-07T21:08:07.501Z,94265.86
2017-10-07T21:10:36.342Z,94263.05
2017-10-07T21:13:04.094Z,94257.88
2017-10-07T21:15:31.951Z,94261.47
2017-10-07T21:17:59.897Z,94254.22
2017-10-07T21:20:28.372Z,94246.34
2017-10-07T21:22:56.210Z,94241.38
2017-10-07T21:25:23.926Z,94241.80
2017-10-07T21:27:51.698Z,94246.77
2017-10-07T21:30:19.525Z,94252.33
2017-10-07T21:32:47.402Z,94244.84
2017-10-07T21:35:15.161Z,94235.31
2017-10-07T21:37:43.101Z,94231.81
2017-10-07T21:40:10.772Z,94228.53
2017-10-07T21:42:38.464Z,94234.02
2017-10-07T21:45:06.863Z,94228.85
2017-10-07T21:47:35.547Z,94230.05
2017-10-07T21:50:04.505Z,94226.98
2017-10-07T21:52:33.447Z,94223.29
2017-10-07T21:55:01.143Z,94221.98
2017-10-07T21:57:28.896Z,94216.34
2017-10-07T21:59:56.615Z,94214.65
2017-10-07T22:02:24.348Z,94202.98
2017-10-07T22:04:52.159Z,94203.27
2017-10-07T22:07:19.895Z,94204.63
2017-10-07T22:09:47.575Z,94203.98
2017-10-07T22:12:16.014Z,94190.97
2017-10-07T22:14:43.742Z,94189.61
2017-10-07T22:17:11.445Z,94187.52
2017-10-07T22:19:39.283Z,94188.05
2017-10-07T22:22:06.962Z,94186.66
2017-10-07T22:24:34.651Z,94187.25
2017-10-07T22:27:02.366Z,94186.79
2017-10-07T22:29:30.066Z,94196.49
2017-10-07T22:31:57.782Z,94180.27
2017-10-07T22:34:25.538Z,94182.12
2017-10-07T22:36:53.286Z,94181.14
2017-10-07T22:39:20.953Z,94173.59
2017-10-07T22:41:48.757Z,94178.18
2017-10-07T22:44:16.510Z,94180.34
2017-10-07T22:46:44.316Z,94172.22
2017-10-07T22:49:12.036Z,94171.13
2017-10-07T22:51:39.689Z,94171.83
2017-10-07T22:54:07.428Z,94170.34
2017-10-07T22:56:35.183Z,94180.00
2017-10-07T22:59:02.886Z,94178.94
2017-10-07T23:01:30.636Z,94170.91
2017-10-07T23:03:58.362Z,94170.69
2017-10-07T23:06:26.066Z,94176.34
2017-10-07T23:08:53.825Z,94169.13
2017-10-07T23:11:21.644Z,94171.55
2017-10-07T23:13:50.284Z,94163.32
2017-10-07T23:16:18.076Z,94160.95
2017-10-07T23:18:45.831Z,94158.78
2017-10-07T23:21:13.503Z,94154.13
2017-10-07T23:23:41.317Z,94151.32
2017-10-07T23:26:09.074Z,94151.34
2017-10-07T23:28:36.748Z,94159.39
2017-10-07T23:31:04.542Z,94160.28
2017-10-07T23:33:32.241Z,94166.91
2017-10-07T23:36:00.793Z,94159.48
2017-10-07T23:38:28.537Z,94153.42
2017-10-07T23:40:56.276Z,94155.09
2017-10-07T23:43:24.033Z,94153.91
2017-10-07T23:45:51.737Z,94151.34
2017-10-07T23:48:19.425Z,94146.08
2017-10-07T23:50:47.187Z,94144.57
2017-10-07T23:53:14.857Z,94144.05
2017-10-07T23:55:42.560Z,94137.78
2017-10-07T23:58:10.307Z,94146.95
